createdAt,value
2018-11-13T00:00:11.138Z,23.4
2018-11-13T00:01:01.175Z,23.4
2018-11-13T00:01:51.335Z,23.4
2018-11-13T00:02:41.900Z,23.4
2018-11-13T00:03:32.330Z,23.4
2018-11-13T00:04:22.496Z,23.4
2018-11-13T00:05:12.423Z,23.4
2018-11-13T00:06:02.531Z,23.4
2018-11-13T00:06:52.235Z,23.4
2018-11-13T00:25:06.531Z,23.3
2018-11-13T00:25:56.777Z,23.3
2018-11-13T00:26:46.974Z,23.3
2018-11-13T00:27:37.511Z,23.3
2018-11-13T00:28:26.178Z,23.3
2018-11-13T00:29:16.785Z,23.3
2018-11-13T00:30:07.861Z,23.3
2018-11-13T00:30:58.015Z,23.3
2018-11-13T00:31:46.873Z,23.3
2018-11-13T00:32:36.928Z,23.3
2018-11-13T00:33:25.940Z,23.3
2018-11-13T00:34:17.366Z,23.3
2018-11-13T00:35:07.463Z,23.3
2018-11-13T00:35:56.673Z,23.3
2018-11-13T00:36:47.340Z,23.3
2018-11-13T00:37:37.911Z,23.3
2018-11-13T00:38:27.420Z,23.3
2018-11-13T00:39:17.747Z,23.3
2018-11-13T00:40:07.053Z,23.3
2018-11-13T00:40:57.569Z,23.3
2018-11-13T00:41:47.867Z,23.3
2018-11-13T00:42:37.620Z,23.3
2018-11-13T00:43:26.474Z,23.3
2018-11-13T00:44:17.572Z,23.3
2018-11-13T00:45:07.322Z,23.3
2018-11-13T00:46:01.158Z,23.3
2018-11-13T00:46:48.143Z,23.3
2018-11-13T00:47:37.797Z,23.3
2018-11-13T00:48:30.845Z,23.3
2018-11-13T00:49:18.752Z,23.3
2018-11-13T00:50:09.339Z,23.3
2018-11-13T00:51:00.047Z,23.3
2018-11-13T00:51:48.879Z,23.3
2018-11-13T00:52:37.698Z,23.3
2018-11-13T00:53:27.657Z,23.3
2018-11-13T00:54:18.639Z,23.2
2018-11-13T00:55:09.689Z,23.2
2018-11-13T00:55:58.826Z,23.3
2018-11-13T00:56:50.006Z,23.2
2018-11-13T00:57:39.306Z,23.2
2018-11-13T00:58:29.074Z,23.2
2018-11-13T00:59:20.160Z,23.2
2018-11-13T01:00:09.726Z,23.2
2018-11-13T01:01:00.253Z,23.2
2018-11-13T01:01:49.110Z,23.2
2018-11-13T01:02:39.457Z,23.2
2018-11-13T01:03:29.140Z,23.2
2018-11-13T01:04:19.456Z,23.2
2018-11-13T01:05:11.101Z,23.2
2018-11-13T01:05:59.089Z,23.2
2018-11-13T01:06:49.368Z,23.2
2018-11-13T01:07:40.597Z,23.1
2018-11-13T01:08:30.132Z,23.1
2018-11-13T01:09:18.813Z,23.1
2018-11-13T01:10:09.719Z,23.2
2018-11-13T01:11:00.104Z,23.1
2018-11-13T01:11:50.424Z,23.1
2018-11-13T01:12:40.000Z,23.1
2018-11-13T01:13:32.051Z,23.1
2018-11-13T01:14:21.066Z,23.1
2018-11-13T01:15:12.508Z,23.1
2018-11-13T01:16:00.030Z,23.1
2018-11-13T01:16:50.149Z,23.1
2018-11-13T01:17:40.519Z,23.1
2018-11-13T01:18:30.512Z,23.1
2018-11-13T01:19:20.316Z,23.1
2018-11-13T01:20:10.887Z,23.1
2018-11-13T01:21:01.984Z,23.1
2018-11-13T01:21:51.329Z,23.1
2018-11-13T01:22:42.064Z,23.1
2018-11-13T01:23:31.137Z,23.1
2018-11-13T01:24:21.970Z,23.1
2018-11-13T01:25:10.389Z,23.1
2018-11-13T01:26:01.199Z,23.1
2018-11-13T01:26:51.339Z,23.1
2018-11-13T01:27:41.721Z,23.1
2018-11-13T01:28:31.484Z,23.1
2018-11-13T01:29:21.051Z,23.1
2018-11-13T01:30:10.879Z,23.1
2018-11-13T01:31:00.968Z,23.1
2018-11-13T01:31:51.236Z,23.1
2018-11-13T01:32:40.566Z,23.1
2018-11-13T01:33:31.482Z,23.1
2018-11-13T01:34:21.651Z,23.1
2018-11-13T01:35:11.696Z,23.1
2018-11-13T01:36:02.166Z,23
2018-11-13T01:36:51.122Z,23.1
2018-11-13T01:37:41.694Z,23
2018-11-13T01:38:31.729Z,23
2018-11-13T01:39:22.068Z,23
2018-11-13T01:40:11.173Z,23.1
2018-11-13T01:41:01.423Z,23
2018-11-13T01:41:54.171Z,23
2018-11-13T01:42:41.268Z,23
2018-11-13T01:43:31.301Z,23
2018-11-13T01:44:21.658Z,23
2018-11-13T01:45:11.730Z,23
2018-11-13T01:46:02.580Z,23
2018-11-13T01:46:51.648Z,23
2018-11-13T01:47:42.402Z,23
2018-11-13T01:48:32.519Z,23
2018-11-13T01:49:23.535Z,23
2018-11-13T01:50:11.397Z,23
2018-11-13T01:51:01.376Z,22.9
2018-11-13T01:51:52.913Z,22.9
2018-11-13T01:52:42.450Z,23
2018-11-13T01:53:32.799Z,22.9
2018-11-13T01:54:22.986Z,22.9
2018-11-13T01:55:11.968Z,22.9
2018-11-13T01:56:02.407Z,23
2018-11-13T01:56:52.993Z,22.9
2018-11-13T01:57:42.814Z,22.9
2018-11-13T01:58:32.185Z,22.9
2018-11-13T01:59:23.265Z,22.9
2018-11-13T02:00:13.267Z,22.9
2018-11-13T02:01:03.715Z,22.9
2018-11-13T02:01:53.664Z,22.9
2018-11-13T02:02:43.812Z,22.9
2018-11-13T02:03:33.057Z,22.9
2018-11-13T02:04:22.695Z,22.9
2018-11-13T02:05:13.744Z,22.9
2018-11-13T02:06:03.354Z,22.9
2018-11-13T02:06:53.441Z,22.9
2018-11-13T02:07:44.052Z,22.9
2018-11-13T02:08:33.319Z,22.9
2018-11-13T02:09:24.186Z,22.9
2018-11-13T02:10:14.578Z,22.9
2018-11-13T02:11:03.683Z,22.9
2018-11-13T02:11:54.358Z,22.9
2018-11-13T02:12:44.063Z,22.9
2018-11-13T02:13:34.186Z,22.8
2018-11-13T02:14:24.331Z,22.8
2018-11-13T02:15:14.875Z,22.9
2018-11-13T02:16:05.505Z,22.9
2018-11-13T02:16:54.781Z,22.8
2018-11-13T02:17:45.038Z,22.9
2018-11-13T02:18:34.038Z,22.8
2018-11-13T02:19:24.784Z,22.8
2018-11-13T02:20:13.668Z,22.8
2018-11-13T02:21:03.532Z,22.8
2018-11-13T02:21:54.168Z,22.8
2018-11-13T02:22:44.689Z,22.8
2018-11-13T02:23:34.185Z,22.8
2018-11-13T02:24:23.462Z,22.8
2018-11-13T02:25:14.243Z,22.8
2018-11-13T02:26:04.750Z,22.8
2018-11-13T02:26:55.125Z,22.8
2018-11-13T02:27:45.762Z,22.8
2018-11-13T02:28:35.275Z,22.8
2018-11-13T02:29:25.667Z,22.8
2018-11-13T02:30:15.357Z,22.8
2018-11-13T02:31:05.720Z,22.8
2018-11-13T02:31:55.764Z,22.8
2018-11-13T02:32:46.181Z,22.8
2018-11-13T02:33:35.315Z,22.8
2018-11-13T02:34:25.403Z,22.8
2018-11-13T02:35:15.797Z,22.8
2018-11-13T02:36:05.295Z,22.8
2018-11-13T02:36:56.167Z,22.8
2018-11-13T02:37:45.889Z,22.8
2018-11-13T02:38:35.959Z,22.7
2018-11-13T02:39:26.899Z,22.8
2018-11-13T02:40:16.406Z,22.8
2018-11-13T02:41:05.964Z,22.7
2018-11-13T02:41:57.002Z,22.8
2018-11-13T02:42:46.499Z,22.7
2018-11-13T02:43:35.839Z,22.7
2018-11-13T02:44:26.746Z,22.7
2018-11-13T02:45:16.240Z,22.7
2018-11-13T02:46:06.206Z,22.7
2018-11-13T02:46:56.493Z,22.7
2018-11-13T02:47:46.658Z,22.7
2018-11-13T02:48:35.513Z,22.7
2018-11-13T02:49:27.413Z,22.7
2018-11-13T02:50:16.405Z,22.7
2018-11-13T02:51:08.013Z,22.7
2018-11-13T02:51:57.616Z,22.6
2018-11-13T02:52:47.247Z,22.6
2018-11-13T02:53:36.619Z,22.6
2018-11-13T02:54:27.373Z,22.7
2018-11-13T02:55:17.491Z,22.6
2018-11-13T02:56:06.431Z,22.6
2018-11-13T02:56:57.158Z,22.6
2018-11-13T02:57:47.701Z,22.6
2018-11-13T02:58:38.273Z,22.6
2018-11-13T02:59:28.038Z,22.6
2018-11-13T03:00:17.790Z,22.6
2018-11-13T03:01:07.625Z,22.6
2018-11-13T03:01:57.532Z,22.6
2018-11-13T03:02:47.730Z,22.6
2018-11-13T03:03:37.927Z,22.6
2018-11-13T03:04:27.340Z,22.6
2018-11-13T03:05:18.772Z,22.6
2018-11-13T03:06:08.475Z,22.6
2018-11-13T03:06:57.980Z,22.6
2018-11-13T03:07:48.619Z,22.6
2018-11-13T03:08:38.415Z,22.6
2018-11-13T03:09:27.976Z,22.6
2018-11-13T03:10:18.073Z,22.6
2018-11-13T03:11:09.178Z,22.6
2018-11-13T03:11:57.879Z,22.6
2018-11-13T03:12:48.800Z,22.6
2018-11-13T03:13:39.376Z,22.6
2018-11-13T03:14:27.842Z,22.6
2018-11-13T03:15:18.657Z,22.6
2018-11-13T03:16:09.224Z,22.6
2018-11-13T03:16:59.244Z,22.5
2018-11-13T03:17:49.397Z,22.5
2018-11-13T03:18:38.636Z,22.6
2018-11-13T03:19:28.172Z,22.6
2018-11-13T03:20:18.204Z,22.5
2018-11-13T03:21:08.904Z,22.5
2018-11-13T03:21:58.825Z,22.6
2018-11-13T03:22:49.102Z,22.5
2018-11-13T03:23:39.707Z,22.5
2018-11-13T03:24:29.254Z,22.5
2018-11-13T03:25:19.299Z,22.5
2018-11-13T03:26:09.869Z,22.5
2018-11-13T03:26:58.896Z,22.5
2018-11-13T03:27:49.286Z,22.5
2018-11-13T03:28:39.809Z,22.5
2018-11-13T03:29:29.613Z,22.5
2018-11-13T03:30:20.037Z,22.5
2018-11-13T03:31:10.914Z,22.5
2018-11-13T03:32:00.636Z,22.5
2018-11-13T03:32:49.972Z,22.5
2018-11-13T03:33:40.768Z,22.5
2018-11-13T03:34:29.663Z,22.4
2018-11-13T03:35:19.764Z,22.4
2018-11-13T03:36:10.358Z,22.5
2018-11-13T03:37:00.052Z,22.5
2018-11-13T03:37:50.201Z,22.5
2018-11-13T03:38:40.828Z,22.5
2018-11-13T03:39:30.948Z,22.4
2018-11-13T03:40:20.700Z,22.4
2018-11-13T03:41:10.063Z,22.4
2018-11-13T03:42:00.572Z,22.4
2018-11-13T03:42:50.905Z,22.4
2018-11-13T03:43:41.191Z,22.4
2018-11-13T03:44:30.740Z,22.4
2018-11-13T03:45:20.230Z,22.4
2018-11-13T03:46:10.265Z,22.4
2018-11-13T03:47:00.980Z,22.4
2018-11-13T03:47:51.012Z,22.4
2018-11-13T03:48:40.985Z,22.4
2018-11-13T03:49:30.727Z,22.4
2018-11-13T03:50:20.706Z,22.4
2018-11-13T03:51:11.423Z,22.4
2018-11-13T03:52:01.593Z,22.4
2018-11-13T03:52:50.860Z,22.4
2018-11-13T03:53:40.937Z,22.4
2018-11-13T03:54:30.970Z,22.4
2018-11-13T03:55:21.043Z,22.4
2018-11-13T03:56:10.900Z,22.4
2018-11-13T03:57:00.828Z,22.4
2018-11-13T03:57:51.854Z,22.4
2018-11-13T03:58:41.827Z,22.4
2018-11-13T03:59:30.754Z,22.4
2018-11-13T04:00:22.175Z,22.4
2018-11-13T04:01:12.186Z,22.4
2018-11-13T04:02:01.648Z,22.4
2018-11-13T04:02:52.818Z,22.4
2018-11-13T04:03:42.919Z,22.4
2018-11-13T04:04:31.986Z,22.4
2018-11-13T04:05:22.739Z,22.4
2018-11-13T04:06:12.222Z,22.4
2018-11-13T04:07:02.552Z,22.4
2018-11-13T04:07:52.370Z,22.4
2018-11-13T04:08:42.596Z,22.4
2018-11-13T04:09:32.329Z,22.4
2018-11-13T04:10:21.809Z,22.4
2018-11-13T04:11:13.176Z,22.3
2018-11-13T04:12:03.223Z,22.3
2018-11-13T04:12:54.118Z,22.3
2018-11-13T04:13:42.464Z,22.3
2018-11-13T04:14:32.514Z,22.3
2018-11-13T04:15:23.264Z,22.3
2018-11-13T04:16:13.583Z,22.3
2018-11-13T04:17:02.814Z,22.3
2018-11-13T04:17:53.969Z,22.3
2018-11-13T04:18:43.085Z,22.3
2018-11-13T04:19:33.679Z,22.3
2018-11-13T04:20:24.078Z,22.3
2018-11-13T04:21:13.283Z,22.3
2018-11-13T04:22:03.088Z,22.3
2018-11-13T04:22:53.065Z,22.3
2018-11-13T04:23:43.757Z,22.3
2018-11-13T04:24:33.503Z,22.3
2018-11-13T04:25:23.912Z,22.3
2018-11-13T04:26:14.214Z,22.3
2018-11-13T04:27:04.235Z,22.3
2018-11-13T04:27:53.820Z,22.3
2018-11-13T04:28:43.497Z,22.3
2018-11-13T04:29:33.665Z,22.3
2018-11-13T04:30:24.783Z,22.3
2018-11-13T04:31:14.287Z,22.3
2018-11-13T04:32:04.460Z,22.3
2018-11-13T04:32:54.230Z,22.3
2018-11-13T04:33:44.833Z,22.3
2018-11-13T04:34:34.500Z,22.3
2018-11-13T04:35:23.845Z,22.3
2018-11-13T04:36:14.322Z,22.3
2018-11-13T04:37:04.994Z,22.3
2018-11-13T04:54:20.573Z,22.2
2018-11-13T04:55:10.167Z,22.3
2018-11-13T04:56:00.024Z,22.2
2018-11-13T04:56:49.686Z,22.2
2018-11-13T04:57:40.021Z,22.2
2018-11-13T04:58:30.350Z,22.2
2018-11-13T04:59:20.421Z,22.2
2018-11-13T05:00:10.536Z,22.2
2018-11-13T05:01:00.034Z,22.2
2018-11-13T05:01:50.116Z,22.2
2018-11-13T05:02:40.440Z,22.2
2018-11-13T05:03:30.230Z,22.2
2018-11-13T05:04:19.965Z,22.2
2018-11-13T05:05:10.797Z,22.2
2018-11-13T05:06:00.606Z,22.2
2018-11-13T05:06:50.423Z,22.2
2018-11-13T05:07:39.841Z,22.2
2018-11-13T05:08:30.866Z,22.2
2018-11-13T05:09:21.671Z,22.2
2018-11-13T05:10:12.778Z,22.2
2018-11-13T05:10:59.563Z,22.1
2018-11-13T05:11:49.471Z,22.1
2018-11-13T05:12:41.077Z,22.1
2018-11-13T05:13:30.855Z,22.1
2018-11-13T05:14:21.833Z,22.1
2018-11-13T05:15:11.247Z,22.1
2018-11-13T05:16:01.320Z,22
2018-11-13T05:16:50.655Z,22.1
2018-11-13T05:17:41.149Z,22.1
2018-11-13T05:18:31.628Z,22.1
2018-11-13T05:19:21.169Z,22.1
2018-11-13T05:20:11.510Z,22.1
2018-11-13T05:21:01.391Z,22.1
2018-11-13T05:21:51.560Z,22.2
2018-11-13T05:22:41.595Z,22.2
2018-11-13T05:23:32.480Z,22.2
2018-11-13T05:24:21.081Z,22.3
2018-11-13T05:25:11.517Z,22.3
2018-11-13T05:26:01.525Z,22.3
2018-11-13T05:26:51.202Z,22.3
2018-11-13T05:27:41.777Z,22.3
2018-11-13T05:28:31.602Z,22.2
2018-11-13T05:29:22.054Z,22.2
2018-11-13T05:30:12.289Z,22.2
2018-11-13T05:31:01.025Z,22.2
2018-11-13T05:31:52.088Z,22.2
2018-11-13T05:32:42.092Z,22.2
2018-11-13T05:33:32.585Z,22.2
2018-11-13T05:34:22.629Z,22.2
2018-11-13T05:35:13.089Z,22.2
2018-11-13T05:36:01.667Z,22.2
2018-11-13T05:36:51.742Z,22.2
2018-11-13T05:37:42.688Z,22.2
2018-11-13T05:38:32.488Z,22.2
2018-11-13T05:39:21.649Z,22.1
2018-11-13T05:40:12.116Z,22.1
2018-11-13T05:41:02.530Z,22.1
2018-11-13T05:41:52.876Z,22.1
2018-11-13T05:42:43.541Z,22.1
2018-11-13T05:43:32.433Z,22.1
2018-11-13T05:44:22.261Z,22.1
2018-11-13T05:45:13.333Z,22.1
2018-11-13T05:46:03.179Z,22.1
2018-11-13T05:46:53.241Z,22.1
2018-11-13T05:47:43.099Z,22.1
2018-11-13T05:48:33.336Z,22.1
2018-11-13T05:49:21.789Z,22.1
2018-11-13T05:50:13.037Z,22.1
2018-11-13T05:51:03.332Z,22.1
2018-11-13T05:51:52.705Z,22.1
2018-11-13T05:52:42.765Z,22.1
2018-11-13T05:53:32.456Z,22.1
2018-11-13T05:54:23.570Z,22.1
2018-11-13T05:55:14.147Z,22.1
2018-11-13T05:56:03.888Z,22.1
2018-11-13T05:56:53.761Z,22.1
2018-11-13T05:57:44.715Z,22.1
2018-11-13T05:58:33.397Z,22.1
2018-11-13T05:59:23.984Z,22
2018-11-13T06:00:13.068Z,22.1
2018-11-13T06:01:03.595Z,22.1
2018-11-13T06:01:53.561Z,22.1
2018-11-13T06:02:43.714Z,22.1
2018-11-13T06:03:34.229Z,22.1
2018-11-13T06:04:23.980Z,22.1
2018-11-13T06:05:14.811Z,22
2018-11-13T06:06:04.396Z,22
2018-11-13T06:06:55.492Z,22
2018-11-13T06:07:44.320Z,22
2018-11-13T06:08:35.017Z,22
2018-11-13T06:09:25.419Z,21.9
2018-11-13T06:10:15.857Z,21.9
2018-11-13T06:11:04.782Z,21.9
2018-11-13T06:11:55.882Z,21.9
2018-11-13T06:12:44.694Z,21.9
2018-11-13T06:13:34.939Z,21.9
2018-11-13T06:14:26.108Z,21.8
2018-11-13T06:15:15.184Z,21.9
2018-11-13T06:16:05.424Z,21.8
2018-11-13T06:16:55.063Z,21.8
2018-11-13T06:17:45.284Z,21.8
2018-11-13T06:18:35.014Z,21.8
2018-11-13T06:19:25.343Z,21.8
2018-11-13T06:20:15.702Z,21.8
2018-11-13T06:21:05.776Z,21.8
2018-11-13T06:21:56.029Z,21.8
2018-11-13T06:22:46.199Z,21.8
2018-11-13T06:23:36.334Z,21.8
2018-11-13T06:24:26.523Z,21.8
2018-11-13T06:25:15.541Z,21.8
2018-11-13T06:26:06.355Z,21.8
2018-11-13T06:26:56.385Z,21.8
2018-11-13T06:27:45.136Z,21.8
2018-11-13T06:28:36.135Z,21.8
2018-11-13T06:29:26.052Z,21.8
2018-11-13T06:30:16.438Z,21.8
2018-11-13T06:31:06.005Z,21.8
2018-11-13T06:31:56.355Z,21.8
2018-11-13T06:32:46.584Z,21.8
2018-11-13T06:33:37.488Z,21.8
2018-11-13T06:34:26.743Z,21.8
2018-11-13T06:35:17.002Z,21.8
2018-11-13T06:36:06.930Z,21.8
2018-11-13T06:36:56.427Z,21.8
2018-11-13T06:37:47.992Z,21.8
2018-11-13T06:38:37.049Z,21.8
2018-11-13T06:39:26.460Z,21.8
2018-11-13T06:40:16.907Z,21.8
2018-11-13T06:41:06.620Z,21.8
2018-11-13T06:41:56.185Z,21.8
2018-11-13T06:42:46.894Z,21.8
2018-11-13T06:43:37.031Z,21.8
2018-11-13T06:44:26.534Z,21.8
2018-11-13T06:45:16.247Z,21.8
2018-11-13T06:46:07.856Z,21.8
2018-11-13T06:46:57.049Z,21.8
2018-11-13T06:47:47.456Z,21.7
2018-11-13T06:48:36.529Z,21.8
2018-11-13T06:49:28.185Z,21.7
2018-11-13T06:50:18.667Z,21.7
2018-11-13T06:51:08.081Z,21.6
2018-11-13T06:51:57.747Z,21.7
2018-11-13T06:52:47.786Z,21.6
2018-11-13T06:53:36.686Z,21.6
2018-11-13T06:54:27.084Z,21.6
2018-11-13T06:55:17.788Z,21.6
2018-11-13T06:56:07.679Z,21.6
2018-11-13T06:56:57.743Z,21.6
2018-11-13T06:57:47.983Z,21.6
2018-11-13T06:58:38.307Z,21.6
2018-11-13T07:00:19.055Z,21.3
2018-11-13T07:01:08.170Z,20.1
2018-11-13T07:01:58.412Z,21.6
2018-11-13T07:02:48.885Z,24.2
2018-11-13T07:03:38.470Z,25.4
2018-11-13T07:04:28.643Z,25
2018-11-13T07:05:20.190Z,24.7
2018-11-13T07:06:08.463Z,24.5
2018-11-13T07:06:59.006Z,24.3
2018-11-13T07:07:48.175Z,24.2
2018-11-13T07:08:38.724Z,24.1
2018-11-13T07:09:28.531Z,24
2018-11-13T07:10:18.854Z,23.9
2018-11-13T07:11:08.888Z,23.8
2018-11-13T07:11:58.818Z,23.8
2018-11-13T07:12:50.255Z,23.8
2018-11-13T07:13:38.498Z,23.7
2018-11-13T07:14:29.651Z,23.6
2018-11-13T07:15:18.734Z,23.6
2018-11-13T07:16:09.595Z,23.5
2018-11-13T07:17:00.039Z,23.4
2018-11-13T07:17:49.598Z,23.4
2018-11-13T07:18:40.199Z,22.8
2018-11-13T07:19:28.691Z,22.6
2018-11-13T07:20:19.788Z,22.4
2018-11-13T07:21:09.275Z,24.4
2018-11-13T07:21:58.905Z,26.3
2018-11-13T07:22:49.306Z,27.3
2018-11-13T07:23:40.125Z,27.4
2018-11-13T07:24:29.880Z,27
2018-11-13T07:25:20.493Z,26.6
2018-11-13T07:26:10.125Z,26.2
2018-11-13T07:27:01.203Z,26.2
2018-11-13T07:27:50.900Z,26.4
2018-11-13T07:28:39.517Z,26.7
2018-11-13T07:29:30.420Z,26.9
2018-11-13T07:30:20.214Z,27.1
2018-11-13T07:31:11.622Z,27.2
2018-11-13T07:32:01.194Z,27.2
2018-11-13T07:32:51.876Z,27.3
2018-11-13T07:33:41.627Z,27.3
2018-11-13T07:34:31.934Z,27.4
2018-11-13T07:35:20.779Z,27.6
2018-11-13T07:36:09.204Z,27.7
2018-11-13T07:37:50.944Z,27.9
2018-11-13T07:38:40.806Z,28.1
2018-11-13T07:39:31.826Z,28.2
2018-11-13T07:40:21.703Z,28.3
2018-11-13T07:41:11.500Z,28.4
2018-11-13T07:42:01.678Z,28.6
2018-11-13T07:42:51.758Z,28.7
2018-11-13T07:43:41.812Z,28.8
2018-11-13T07:44:31.116Z,28.9
2018-11-13T07:45:22.028Z,29.1
2018-11-13T07:46:12.322Z,29.3
2018-11-13T07:47:03.314Z,29.4
2018-11-13T07:47:54.505Z,29.6
2018-11-13T07:48:42.371Z,29.7
2018-11-13T07:49:32.316Z,29.8
2018-11-13T07:50:22.077Z,29.9
2018-11-13T07:51:13.207Z,30
2018-11-13T07:52:02.420Z,30.1
2018-11-13T07:52:52.275Z,30.3
2018-11-13T07:53:42.112Z,30.4
2018-11-13T07:54:32.448Z,30.6
2018-11-13T07:55:22.719Z,30.7
2018-11-13T07:56:13.067Z,30.8
2018-11-13T07:57:02.562Z,30.9
2018-11-13T07:57:53.100Z,31.1
2018-11-13T07:58:43.080Z,31.3
2018-11-13T07:59:32.754Z,31.4
2018-11-13T08:00:23.269Z,31.4
2018-11-13T08:01:12.829Z,31.6
2018-11-13T08:02:02.350Z,31.7
2018-11-13T08:02:52.989Z,31.8
2018-11-13T08:03:43.747Z,31.9
2018-11-13T08:04:32.995Z,31.9
2018-11-13T08:05:23.642Z,32
2018-11-13T08:06:14.237Z,32.1
2018-11-13T08:07:03.217Z,32.1
2018-11-13T08:07:53.830Z,32.3
2018-11-13T08:08:44.150Z,32.4
2018-11-13T08:09:34.422Z,32.7
2018-11-13T08:10:23.597Z,32.9
2018-11-13T08:11:13.774Z,33.1
2018-11-13T08:12:03.364Z,33.2
2018-11-13T08:12:54.904Z,33.2
2018-11-13T08:13:44.854Z,33.2
2018-11-13T08:14:34.174Z,33.2
2018-11-13T08:15:24.040Z,33.2
2018-11-13T08:16:14.114Z,33.3
2018-11-13T08:17:04.209Z,33.6
2018-11-13T08:17:54.075Z,33.8
2018-11-13T08:18:44.577Z,34.1
2018-11-13T08:19:33.866Z,34.3
2018-11-13T08:20:23.676Z,34.3
2018-11-13T08:21:15.988Z,34.2
2018-11-13T08:22:05.772Z,34.1
2018-11-13T08:22:54.886Z,34
2018-11-13T08:23:45.231Z,34
2018-11-13T08:24:34.753Z,34.1
2018-11-13T08:25:26.094Z,34.3
2018-11-13T08:26:14.622Z,34.6
2018-11-13T08:27:05.225Z,34.8
2018-11-13T08:27:54.766Z,34.9
2018-11-13T08:28:45.713Z,35
2018-11-13T08:29:35.786Z,35.1
2018-11-13T08:30:24.186Z,35.3
2018-11-13T08:31:15.486Z,35.4
2018-11-13T08:32:05.038Z,35.6
2018-11-13T08:32:55.323Z,35.6
2018-11-13T08:33:45.531Z,35.6
2018-11-13T08:34:36.268Z,35.6
2018-11-13T08:35:25.216Z,35.8
2018-11-13T08:36:15.133Z,35.9
2018-11-13T08:37:05.145Z,35.9
2018-11-13T08:37:55.502Z,35.9
2018-11-13T08:38:46.183Z,35.8
2018-11-13T08:39:36.104Z,35.8
2018-11-13T08:40:25.791Z,35.8
2018-11-13T08:41:15.665Z,35.8
2018-11-13T08:42:05.543Z,35.8
2018-11-13T08:42:56.081Z,35.8
2018-11-13T08:43:46.499Z,35.8
2018-11-13T08:44:35.775Z,35.9
2018-11-13T08:45:26.456Z,35.9
2018-11-13T08:46:16.431Z,35.8
2018-11-13T08:47:06.895Z,35.9
2018-11-13T08:47:56.020Z,35.9
2018-11-13T08:48:46.113Z,35.9
2018-11-13T08:49:36.356Z,36
2018-11-13T08:50:27.150Z,36.1
2018-11-13T08:51:15.616Z,36.2
2018-11-13T08:52:07.223Z,36.3
2018-11-13T09:08:47.300Z,39.5
2018-11-13T09:09:37.282Z,39.6
2018-11-13T09:10:27.932Z,39.8
2018-11-13T09:11:17.996Z,39.9
2018-11-13T09:12:08.775Z,40.1
2018-11-13T09:12:57.300Z,40.3
2018-11-13T09:13:48.020Z,40.4
2018-11-13T09:14:37.755Z,40.5
2018-11-13T09:15:28.147Z,40.6
2018-11-13T09:16:17.817Z,40.8
2018-11-13T09:17:07.654Z,40.9
2018-11-13T09:17:58.821Z,41
2018-11-13T09:18:49.547Z,41.2
2018-11-13T09:19:41.718Z,41.3
2018-11-13T09:20:27.578Z,41.4
2018-11-13T09:21:18.722Z,41.6
2018-11-13T09:22:09.056Z,41.7
2018-11-13T09:22:59.160Z,41.8
2018-11-13T09:23:48.743Z,41.9
2018-11-13T09:24:37.519Z,41.9
2018-11-13T09:25:28.539Z,42.1
2018-11-13T09:26:18.596Z,42.2
2018-11-13T09:27:08.559Z,42.3
2018-11-13T09:27:58.727Z,42.4
2018-11-13T09:28:48.928Z,42.5
2018-11-13T09:29:38.664Z,42.6
2018-11-13T09:30:31.860Z,42.8
2018-11-13T09:31:18.796Z,42.9
2018-11-13T09:32:09.351Z,43.1
2018-11-13T09:32:59.638Z,43.2
2018-11-13T09:33:48.678Z,43.3
2018-11-13T09:34:39.145Z,43.4
2018-11-13T09:35:29.511Z,43.5
2018-11-13T09:36:18.838Z,43.6
2018-11-13T09:37:08.782Z,43.6
2018-11-13T09:37:59.370Z,43.8
2018-11-13T09:38:49.970Z,43.9
2018-11-13T09:39:39.995Z,43.9
2018-11-13T09:40:30.671Z,44.1
2018-11-13T09:41:19.372Z,44.3
2018-11-13T09:42:09.630Z,44.4
2018-11-13T09:43:00.355Z,44.5
2018-11-13T09:43:49.478Z,44.5
2018-11-13T09:44:40.663Z,44.5
2018-11-13T09:45:29.947Z,44.7
2018-11-13T09:46:21.341Z,44.8
2018-11-13T09:47:10.368Z,44.9
2018-11-13T09:48:01.125Z,45.1
2018-11-13T09:48:50.980Z,45.3
2018-11-13T09:49:40.601Z,45.4
2018-11-13T09:50:30.893Z,45.5
2018-11-13T09:51:19.413Z,45.6
2018-11-13T09:52:10.272Z,45.7
2018-11-13T09:53:00.978Z,45.8
2018-11-13T09:53:51.579Z,45.9
2018-11-13T09:54:40.500Z,46.1
2018-11-13T09:55:31.152Z,46.2
2018-11-13T09:56:20.614Z,46.3
2018-11-13T09:57:11.015Z,46.4
2018-11-13T09:58:01.635Z,46.5
2018-11-13T09:58:51.100Z,46.6
2018-11-13T09:59:40.697Z,46.8
2018-11-13T10:00:32.211Z,46.9
2018-11-13T10:01:25.871Z,47.1
2018-11-13T10:02:19.536Z,47.1
2018-11-13T10:03:10.725Z,47.3
2018-11-13T10:03:53.415Z,47.4
2018-11-13T10:04:48.143Z,47.5
2018-11-13T10:05:31.934Z,47.6
2018-11-13T10:06:22.183Z,47.7
2018-11-13T10:07:11.773Z,47.8
2018-11-13T10:08:01.869Z,47.9
2018-11-13T10:08:51.578Z,47.9
2018-11-13T10:09:41.306Z,48
2018-11-13T10:10:31.512Z,48.1
2018-11-13T10:11:21.657Z,48.3
2018-11-13T10:12:11.879Z,48.3
2018-11-13T10:13:01.988Z,48.4
2018-11-13T10:13:52.788Z,48.5
2018-11-13T10:14:41.971Z,48.6
2018-11-13T10:15:32.297Z,48.7
2018-11-13T10:16:22.198Z,48.8
2018-11-13T10:17:13.292Z,48.8
2018-11-13T10:18:04.665Z,48.9
2018-11-13T10:18:52.088Z,49
2018-11-13T10:19:42.403Z,49.1
2018-11-13T10:20:32.010Z,49.3
2018-11-13T10:21:22.700Z,49.3
2018-11-13T10:22:13.090Z,49.4
2018-11-13T10:23:02.973Z,49.6
2018-11-13T10:23:52.240Z,49.6
2018-11-13T10:24:42.952Z,49.7
2018-11-13T10:25:32.495Z,49.8
2018-11-13T10:26:22.837Z,49.9
2018-11-13T10:27:13.351Z,50
2018-11-13T10:28:03.261Z,50.1
2018-11-13T10:28:52.622Z,50.1
2018-11-13T10:29:42.877Z,50.3
2018-11-13T10:30:33.260Z,50.3
2018-11-13T10:31:22.989Z,50.4
2018-11-13T10:32:13.525Z,50.4
2018-11-13T10:33:03.489Z,50.6
2018-11-13T10:33:53.947Z,50.6
2018-11-13T10:34:43.144Z,50.6
2018-11-13T10:35:34.019Z,50.6
2018-11-13T10:36:23.849Z,50.6
2018-11-13T10:37:13.986Z,50.8
2018-11-13T10:38:03.959Z,50.9
2018-11-13T10:38:52.944Z,50.9
2018-11-13T10:39:44.313Z,51
2018-11-13T10:40:35.945Z,50.9
2018-11-13T10:41:24.510Z,51.1
2018-11-13T10:42:14.066Z,51.1
2018-11-13T10:43:04.259Z,51.2
2018-11-13T10:43:53.891Z,51.2
2018-11-13T10:44:44.166Z,51.3
2018-11-13T10:45:34.228Z,51.4
2018-11-13T10:46:24.533Z,51.4
2018-11-13T10:47:13.843Z,51.5
2018-11-13T10:48:03.192Z,51.6
2018-11-13T10:48:55.338Z,51.6
2018-11-13T10:49:44.065Z,51.7
2018-11-13T10:50:34.973Z,51.7
2018-11-13T10:51:24.701Z,51.8
2018-11-13T10:52:15.045Z,51.9
2018-11-13T10:53:04.448Z,51.9
2018-11-13T10:53:54.485Z,51.9
2018-11-13T10:56:25.843Z,52.1
2018-11-13T10:57:14.552Z,52.1
2018-11-13T10:58:05.277Z,52.1
2018-11-13T10:58:55.181Z,52.1
2018-11-13T10:59:45.267Z,52.2
2018-11-13T11:00:35.573Z,52.3
2018-11-13T11:01:25.450Z,52.3
2018-11-13T11:02:16.443Z,52.3
2018-11-13T11:03:55.798Z,52.4
2018-11-13T11:04:45.854Z,52.4
2018-11-13T11:05:36.282Z,52.5
2018-11-13T11:06:26.314Z,52.6
2018-11-13T11:07:15.735Z,52.5
2018-11-13T11:08:06.776Z,52.6
2018-11-13T11:08:55.009Z,52.7
2018-11-13T11:09:45.539Z,52.7
2018-11-13T11:10:35.787Z,52.8
2018-11-13T11:11:26.811Z,52.8
2018-11-13T11:12:15.855Z,52.9
2018-11-13T11:13:07.726Z,52.9
2018-11-13T11:13:58.752Z,52.9
2018-11-13T11:14:46.134Z,53
2018-11-13T11:15:36.944Z,53.1
2018-11-13T11:16:27.019Z,53.1
2018-11-13T11:17:16.666Z,53.2
2018-11-13T11:18:06.623Z,53.3
2018-11-13T11:18:57.760Z,53.3
2018-11-13T11:19:47.263Z,53.3
2018-11-13T11:20:37.586Z,53.4
2018-11-13T11:21:26.716Z,53.4
2018-11-13T11:22:17.201Z,53.5
2018-11-13T11:23:07.289Z,53.6
2018-11-13T11:23:58.228Z,53.6
2018-11-13T11:24:47.318Z,53.6
2018-11-13T11:25:36.720Z,53.6
2018-11-13T11:26:28.361Z,53.6
2018-11-13T11:27:17.497Z,53.6
2018-11-13T11:28:06.998Z,53.7
2018-11-13T11:28:57.691Z,53.7
2018-11-13T11:29:47.963Z,53.8
2018-11-13T11:30:37.518Z,53.8
2018-11-13T11:31:27.803Z,53.8
2018-11-13T11:32:17.589Z,53.9
2018-11-13T11:33:07.736Z,53.9
2018-11-13T11:33:57.743Z,53.9
2018-11-13T11:34:47.815Z,53.9
2018-11-13T11:35:38.663Z,54
2018-11-13T11:36:27.022Z,54
2018-11-13T11:37:18.748Z,54
2018-11-13T11:38:07.355Z,54.1
2018-11-13T11:39:01.160Z,54.1
2018-11-13T11:39:48.287Z,54.2
2018-11-13T11:40:39.028Z,54.2
2018-11-13T11:41:28.508Z,54.2
2018-11-13T11:42:18.075Z,54.3
2018-11-13T11:43:09.110Z,54.3
2018-11-13T11:43:58.952Z,54.3
2018-11-13T11:44:48.548Z,54.3
2018-11-13T11:45:39.110Z,54.3
2018-11-13T11:46:29.172Z,54.4
2018-11-13T11:47:17.855Z,54.4
2018-11-13T11:48:09.087Z,54.4
2018-11-13T11:48:57.984Z,54.4
2018-11-13T11:49:48.886Z,54.4
2018-11-13T11:50:39.242Z,54.4
2018-11-13T11:51:28.721Z,54.5
2018-11-13T11:52:18.415Z,54.5
2018-11-13T11:53:09.697Z,54.6
2018-11-13T11:54:01.363Z,54.6
2018-11-13T11:54:50.064Z,54.6
2018-11-13T11:55:39.555Z,54.6
2018-11-13T11:56:28.679Z,54.6
2018-11-13T11:57:19.361Z,54.6
2018-11-13T11:58:09.494Z,54.7
2018-11-13T11:58:58.908Z,54.7
2018-11-13T11:59:49.551Z,54.7
2018-11-13T12:00:40.599Z,54.7
2018-11-13T12:01:29.542Z,54.8
2018-11-13T12:02:20.897Z,54.8